createdAt,value
2022-08-17T00:00:43.930Z,3.92
2022-08-17T00:03:33.259Z,4.65
2022-08-17T00:06:07.019Z,6.88
2022-08-17T00:08:39.277Z,7.47
2022-08-17T00:11:10.258Z,3.58
2022-08-17T00:13:41.140Z,4.50
2022-08-17T00:16:15.033Z,5.75
2022-08-17T00:19:05.818Z,8.25
2022-08-17T00:22:14.716Z,3.80
2022-08-17T00:24:24.830Z,7.30
2022-08-17T00:26:53.993Z,6.00
2022-08-17T00:29:22.703Z,5.65
2022-08-17T00:31:53.682Z,5.95
2022-08-17T00:34:22.187Z,3.90
2022-08-17T00:36:50.995Z,5.07
2022-08-17T00:39:19.308Z,4.35
2022-08-17T00:41:48.248Z,4.38
2022-08-17T00:44:16.911Z,6.28
2022-08-17T00:46:47.914Z,4.95
2022-08-17T00:49:19.365Z,5.38
2022-08-17T00:51:53.769Z,5.82
2022-08-17T00:54:25.036Z,10.82
2022-08-17T00:57:05.441Z,10.70
2022-08-17T00:59:55.926Z,6.07
2022-08-17T01:02:50.017Z,7.55
2022-08-17T01:05:21.733Z,8.63
2022-08-17T01:07:54.852Z,4.45
2022-08-17T01:10:58.384Z,6.25
2022-08-17T01:13:18.514Z,3.85
2022-08-17T01:15:48.990Z,7.53
2022-08-17T01:18:18.129Z,8.48
2022-08-17T01:20:49.656Z,6.45
2022-08-17T01:23:20.572Z,5.13
2022-08-17T01:25:53.388Z,4.40
2022-08-17T01:28:33.322Z,4.93
2022-08-17T01:31:13.493Z,4.75
2022-08-17T01:33:47.643Z,7.32
2022-08-17T01:36:17.240Z,5.80
2022-08-17T01:38:45.581Z,5.28
2022-08-17T01:41:16.571Z,3.67
2022-08-17T01:43:48.813Z,5.18
2022-08-17T01:46:23.958Z,5.63
2022-08-17T01:48:52.817Z,13.10
2022-08-17T01:51:21.841Z,5.22
2022-08-17T01:53:54.790Z,5.05
2022-08-17T01:56:24.531Z,5.70
2022-08-17T01:58:53.883Z,5.03
2022-08-17T02:01:26.413Z,4.97
2022-08-17T02:04:00.441Z,6.72
2022-08-17T02:06:45.313Z,8.05
2022-08-17T02:09:25.512Z,5.47
2022-08-17T02:14:28.696Z,6.05
2022-08-17T02:16:57.576Z,9.85
2022-08-17T02:19:26.300Z,4.30
2022-08-17T02:21:55.176Z,11.63
2022-08-17T02:25:00.815Z,4.43
2022-08-17T02:27:17.928Z,5.17
2022-08-17T02:29:50.613Z,3.55
2022-08-17T02:32:27.856Z,4.72
2022-08-17T02:35:00.769Z,3.95
2022-08-17T02:37:39.284Z,4.07
2022-08-17T02:40:09.159Z,5.00
2022-08-17T02:42:43.229Z,5.80
2022-08-17T02:45:20.338Z,4.95
2022-08-17T02:47:59.536Z,5.00
2022-08-17T02:50:38.225Z,6.97
2022-08-17T02:53:13.751Z,11.13
2022-08-17T02:55:50.828Z,3.42
2022-08-17T02:58:34.567Z,4.47
2022-08-17T03:01:08.331Z,6.22
2022-08-17T03:03:42.667Z,3.65
2022-08-17T03:06:13.013Z,6.25
2022-08-17T03:08:41.698Z,4.07
2022-08-17T03:11:11.661Z,4.00
2022-08-17T03:13:41.395Z,5.22
2022-08-17T03:16:10.387Z,4.13
2022-08-17T03:18:42.992Z,5.95
2022-08-17T03:21:13.120Z,4.32
2022-08-17T03:23:47.033Z,4.35
2022-08-17T03:26:23.610Z,4.03
2022-08-17T03:28:58.820Z,3.42
2022-08-17T03:31:28.355Z,5.85
2022-08-17T03:34:01.017Z,3.72
2022-08-17T03:36:32.838Z,3.20
2022-08-17T03:39:06.262Z,3.80
2022-08-17T03:41:35.405Z,4.55
2022-08-17T03:44:04.702Z,4.22
2022-08-17T03:46:51.319Z,3.38
2022-08-17T03:49:39.097Z,3.92
2022-08-17T03:52:25.453Z,4.05
2022-08-17T03:55:11.367Z,4.82
2022-08-17T03:57:41.211Z,3.55
2022-08-17T04:00:09.967Z,3.63
2022-08-17T04:03:00.208Z,3.22
2022-08-17T04:05:29.231Z,2.60
2022-08-17T04:07:58.193Z,2.42
2022-08-17T04:10:26.735Z,2.80
2022-08-17T04:12:55.914Z,4.22
2022-08-17T04:15:26.895Z,2.58
2022-08-17T04:17:55.796Z,2.15
2022-08-17T04:20:27.566Z,3.47
2022-08-17T04:22:58.932Z,3.03
2022-08-17T04:25:28.298Z,2.20
2022-08-17T04:27:58.350Z,2.63
2022-08-17T04:30:27.524Z,2.20
2022-08-17T04:33:14.507Z,3.35
2022-08-17T04:35:48.114Z,2.05
2022-08-17T04:38:20.990Z,2.38
2022-08-17T04:41:08.302Z,4.32
2022-08-17T04:43:40.079Z,2.05
2022-08-17T04:46:15.881Z,2.13
2022-08-17T04:48:47.244Z,4.40
2022-08-17T04:51:17.536Z,3.05
2022-08-17T04:53:53.959Z,1.95
2022-08-17T04:56:31.376Z,2.60
2022-08-17T04:59:02.568Z,1.75
2022-08-17T05:01:35.473Z,2.03
2022-08-17T05:04:33.322Z,2.22
2022-08-17T05:06:55.661Z,2.05
2022-08-17T05:09:24.770Z,2.30
2022-08-17T05:11:53.658Z,3.33
2022-08-17T05:14:33.728Z,2.38
2022-08-17T05:17:04.561Z,2.58
2022-08-17T05:19:37.422Z,2.38
2022-08-17T05:22:12.459Z,2.50
2022-08-17T05:24:50.475Z,1.95
2022-08-17T05:27:24.163Z,3.40
2022-08-17T05:29:59.836Z,3.20
2022-08-17T05:32:39.321Z,2.53
2022-08-17T05:35:11.723Z,3.90
2022-08-17T05:37:47.131Z,2.00
2022-08-17T05:40:15.788Z,1.70
2022-08-17T05:43:07.817Z,5.40
2022-08-17T05:46:03.580Z,1.80
2022-08-17T05:48:40.023Z,2.58
2022-08-17T05:51:20.579Z,2.50
2022-08-17T05:53:49.038Z,2.72
2022-08-17T05:56:33.740Z,2.58
2022-08-17T05:59:12.778Z,4.43
2022-08-17T06:01:47.888Z,2.88
2022-08-17T06:04:32.026Z,2.63
2022-08-17T06:07:07.747Z,1.90
2022-08-17T06:09:50.572Z,1.73
2022-08-17T06:12:24.862Z,4.05
2022-08-17T06:14:59.417Z,2.00
2022-08-17T06:17:28.449Z,1.85
2022-08-17T06:20:01.008Z,3.35
2022-08-17T06:22:39.242Z,2.20
2022-08-17T06:25:40.826Z,3.20
2022-08-17T06:28:16.345Z,2.17
2022-08-17T06:30:58.571Z,3.08
2022-08-17T06:33:34.667Z,4.38
2022-08-17T06:36:09.319Z,2.83
2022-08-17T06:38:38.870Z,2.78
2022-08-17T06:41:16.593Z,2.20
2022-08-17T06:44:42.287Z,3.03
2022-08-17T06:47:13.504Z,4.07
2022-08-17T06:49:41.664Z,3.30
2022-08-17T06:52:13.121Z,3.83
2022-08-17T06:55:02.343Z,4.70
2022-08-17T06:57:34.184Z,2.38
2022-08-17T07:00:17.673Z,4.53
2022-08-17T07:03:03.519Z,2.53
2022-08-17T07:05:37.364Z,4.18
2022-08-17T07:08:27.736Z,4.60
2022-08-17T07:11:01.550Z,7.88
2022-08-17T07:13:37.474Z,4.82
2022-08-17T07:16:14.721Z,3.90
2022-08-17T07:18:43.821Z,2.90
2022-08-17T07:21:21.784Z,4.43
2022-08-17T07:24:09.611Z,4.13
2022-08-17T07:27:05.050Z,6.00
2022-08-17T07:29:36.712Z,3.75
2022-08-17T07:32:06.643Z,3.63
2022-08-17T07:34:56.179Z,5.00
2022-08-17T07:37:28.366Z,4.72
2022-08-17T07:39:59.631Z,4.70
2022-08-17T07:43:02.429Z,4.80
2022-08-17T07:45:52.469Z,4.20
2022-08-17T07:48:22.171Z,4.85
2022-08-17T07:51:00.186Z,4.78
2022-08-17T07:53:31.193Z,5.57
2022-08-17T07:56:00.407Z,6.47
2022-08-17T07:58:28.740Z,5.35
2022-08-17T08:01:05.457Z,4.85
2022-08-17T08:03:41.238Z,6.55
2022-08-17T08:06:21.818Z,6.05
2022-08-17T08:09:00.504Z,7.75
2022-08-17T08:11:31.788Z,8.50
2022-08-17T08:14:18.477Z,9.75
2022-08-17T08:16:59.779Z,12.85
2022-08-17T08:19:29.225Z,9.90
2022-08-17T08:22:03.613Z,9.68
2022-08-17T08:24:55.322Z,15.70
2022-08-17T08:27:28.902Z,10.37
2022-08-17T08:30:11.188Z,9.27
2022-08-17T08:32:57.583Z,7.88
2022-08-17T08:35:32.463Z,7.28
2022-08-17T08:38:00.798Z,10.38
2022-08-17T08:40:32.346Z,11.60
2022-08-17T08:43:02.284Z,7.75
2022-08-17T08:45:51.687Z,7.32
2022-08-17T08:48:53.934Z,9.80
2022-08-17T08:51:27.659Z,16.33
2022-08-17T08:54:15.976Z,14.63
2022-08-17T08:57:19.861Z,9.07
2022-08-17T08:59:51.217Z,7.37
2022-08-17T09:02:48.418Z,8.70
2022-08-17T09:05:29.353Z,6.85
2022-08-17T09:08:16.417Z,9.40
2022-08-17T09:10:58.737Z,12.07
2022-08-17T09:13:32.482Z,9.07
2022-08-17T09:16:22.689Z,8.02
2022-08-17T09:19:00.743Z,9.55
2022-08-17T09:21:48.547Z,8.43
2022-08-17T09:24:22.956Z,9.35
2022-08-17T09:27:14.220Z,11.55
2022-08-17T09:29:45.652Z,10.52
2022-08-17T09:32:23.292Z,11.52
2022-08-17T09:34:56.045Z,12.98
2022-08-17T09:37:30.581Z,10.38
2022-08-17T09:39:59.267Z,13.93
2022-08-17T09:42:32.719Z,12.43
2022-08-17T09:45:08.421Z,11.43
2022-08-17T09:47:50.861Z,11.55
2022-08-17T09:51:04.174Z,13.60
2022-08-17T09:53:32.503Z,9.85
2022-08-17T09:56:07.269Z,13.50
2022-08-17T09:59:02.483Z,15.20
2022-08-17T10:01:45.817Z,13.07
2022-08-17T10:04:14.202Z,11.43
2022-08-17T10:06:50.980Z,10.43
2022-08-17T10:09:23.816Z,12.57
2022-08-17T10:12:21.446Z,13.30
2022-08-17T10:14:55.730Z,9.88
2022-08-17T10:17:27.072Z,12.13
2022-08-17T10:20:11.675Z,17.15
2022-08-17T10:23:05.744Z,14.73
2022-08-17T10:25:55.935Z,19.58
2022-08-17T10:28:30.306Z,15.25
2022-08-17T10:31:33.854Z,13.90
2022-08-17T10:34:03.677Z,14.77
2022-08-17T10:36:37.859Z,13.80
2022-08-17T10:39:09.541Z,14.35
2022-08-17T10:41:42.649Z,16.77
2022-08-17T10:44:39.557Z,14.35
2022-08-17T10:47:28.688Z,15.52
2022-08-17T10:49:57.615Z,14.73
2022-08-17T10:52:30.399Z,17.13
2022-08-17T10:55:02.553Z,15.15
2022-08-17T10:57:33.839Z,18.42
2022-08-17T11:00:01.947Z,17.35
2022-08-17T11:02:51.568Z,12.40
2022-08-17T11:05:27.587Z,16.42
2022-08-17T11:08:14.644Z,13.68
2022-08-17T11:11:04.490Z,23.25
2022-08-17T11:13:39.973Z,18.38
2022-08-17T11:16:15.354Z,12.63
2022-08-17T11:19:08.547Z,17.38
2022-08-17T11:21:55.370Z,14.73
2022-08-17T11:24:32.362Z,15.38
2022-08-17T11:27:12.133Z,17.98
2022-08-17T11:30:01.500Z,23.25
2022-08-17T11:32:47.096Z,18.95
2022-08-17T11:35:24.508Z,20.33
2022-08-17T11:38:02.502Z,18.02
2022-08-17T11:40:50.170Z,20.95
2022-08-17T11:43:25.652Z,19.48
2022-08-17T11:45:58.172Z,20.15
2022-08-17T11:48:49.286Z,18.60
2022-08-17T11:51:34.951Z,24.42
2022-08-17T11:54:31.265Z,21.90
2022-08-17T11:56:52.924Z,15.63
2022-08-17T11:59:27.298Z,18.83
2022-08-17T12:01:57.233Z,30.58
2022-08-17T12:04:28.533Z,24.20
2022-08-17T12:07:00.024Z,25.75
2022-08-17T12:09:33.263Z,23.35
2022-08-17T12:12:14.698Z,28.15
2022-08-17T12:17:56.574Z,24.38
2022-08-17T12:20:36.101Z,24.63
2022-08-17T12:23:12.262Z,21.98
2022-08-17T12:25:41.813Z,25.73
2022-08-17T12:28:25.518Z,23.67
2022-08-17T12:33:27.811Z,25.20
2022-08-17T12:36:00.515Z,19.45
2022-08-17T12:38:36.856Z,23.85
2022-08-17T12:41:21.605Z,25.25
2022-08-17T12:44:02.950Z,20.13
2022-08-17T12:46:35.817Z,25.98
2022-08-17T12:49:23.996Z,26.25
2022-08-17T12:51:55.602Z,25.73
2022-08-17T12:54:31.417Z,27.90
2022-08-17T12:57:03.128Z,24.60
2022-08-17T12:59:33.175Z,27.55
2022-08-17T13:02:07.241Z,24.38
2022-08-17T13:04:40.627Z,24.48
2022-08-17T13:07:12.205Z,28.77
2022-08-17T13:09:51.358Z,29.30
2022-08-17T13:12:26.864Z,28.38
2022-08-17T13:14:58.392Z,29.33
2022-08-17T13:17:31.457Z,26.35
2022-08-17T13:20:00.474Z,28.42
2022-08-17T13:22:33.534Z,26.20
2022-08-17T13:25:07.316Z,25.08
2022-08-17T13:27:42.762Z,30.05
2022-08-17T13:30:12.897Z,31.00
2022-08-17T13:32:59.604Z,29.90
2022-08-17T13:35:39.762Z,25.73
2022-08-17T13:38:13.408Z,25.38
2022-08-17T13:40:43.945Z,22.40
2022-08-17T13:43:12.421Z,26.90
2022-08-17T13:45:50.765Z,27.33
2022-08-17T13:48:25.662Z,26.17
2022-08-17T13:50:56.542Z,28.70
2022-08-17T13:53:37.226Z,21.85
2022-08-17T13:56:31.748Z,19.77
2022-08-17T13:59:12.990Z,23.38
2022-08-17T14:01:53.470Z,29.20
2022-08-17T14:04:25.243Z,32.20
2022-08-17T14:06:58.375Z,30.98
2022-08-17T14:09:49.490Z,36.08
2022-08-17T14:12:21.687Z,40.70
2022-08-17T14:14:50.712Z,40.80
2022-08-17T14:17:36.308Z,38.03
2022-08-17T14:20:10.353Z,42.90
2022-08-17T14:22:44.549Z,47.10
2022-08-17T14:25:14.850Z,44.00
2022-08-17T14:27:52.735Z,41.95
2022-08-17T14:30:23.855Z,57.45
2022-08-17T14:33:12.800Z,56.22
2022-08-17T14:35:44.270Z,45.70
2022-08-17T14:38:16.015Z,51.03
2022-08-17T14:40:48.934Z,51.95
2022-08-17T14:43:20.442Z,47.97
2022-08-17T14:45:49.621Z,49.30
2022-08-17T14:48:19.300Z,47.92
2022-08-17T14:50:48.779Z,52.67
2022-08-17T14:53:23.601Z,44.15
2022-08-17T14:55:53.097Z,35.08
2022-08-17T14:58:24.497Z,44.58
2022-08-17T15:00:53.372Z,35.50
2022-08-17T15:03:33.739Z,39.08
2022-08-17T15:06:03.399Z,34.45
2022-08-17T15:08:33.922Z,33.40
2022-08-17T15:11:03.035Z,35.58
2022-08-17T15:13:35.077Z,35.65
2022-08-17T15:16:03.846Z,37.50
2022-08-17T15:18:34.662Z,38.35
2022-08-17T15:21:04.922Z,25.63
2022-08-17T15:23:40.000Z,28.55
2022-08-17T15:26:09.220Z,28.88
2022-08-17T15:28:38.050Z,23.83
2022-08-17T15:31:07.970Z,28.48
2022-08-17T15:33:37.666Z,27.42
2022-08-17T15:36:07.488Z,25.60
2022-08-17T15:38:39.276Z,26.10
2022-08-17T15:41:14.971Z,23.23
2022-08-17T15:43:45.684Z,25.88
2022-08-17T15:46:20.995Z,25.83
2022-08-17T15:48:58.211Z,19.67
2022-08-17T15:51:31.094Z,18.85
2022-08-17T15:54:04.537Z,22.40
2022-08-17T15:56:54.482Z,23.27
2022-08-17T15:59:31.685Z,22.92
2022-08-17T16:03:14.821Z,27.92
2022-08-17T16:05:08.731Z,29.35
2022-08-17T16:07:44.325Z,29.42
2022-08-17T16:10:18.211Z,29.00
2022-08-17T16:12:51.386Z,26.63
2022-08-17T16:15:21.291Z,26.73
2022-08-17T16:18:00.385Z,27.52
2022-08-17T16:20:31.472Z,34.03
2022-08-17T16:23:01.073Z,27.88
2022-08-17T16:25:52.046Z,22.48
2022-08-17T16:28:20.107Z,24.75
2022-08-17T16:30:48.601Z,26.23
2022-08-17T16:33:26.595Z,27.02
2022-08-17T16:35:56.297Z,33.10
2022-08-17T16:38:30.397Z,29.80
2022-08-17T16:40:59.009Z,32.17
2022-08-17T16:43:31.717Z,28.67
2022-08-17T16:46:01.729Z,27.65
2022-08-17T16:48:34.571Z,30.65
2022-08-17T16:51:04.692Z,27.25
2022-08-17T16:53:35.269Z,24.83
2022-08-17T16:56:07.995Z,28.83
2022-08-17T16:58:40.977Z,29.30
2022-08-17T17:01:13.794Z,23.67
2022-08-17T17:03:44.913Z,23.80
2022-08-17T17:06:33.829Z,19.48
2022-08-17T17:09:12.131Z,18.60
2022-08-17T17:11:47.611Z,21.48
2022-08-17T17:14:20.110Z,22.20
2022-08-17T17:16:54.054Z,20.23
2022-08-17T17:19:55.819Z,23.38
2022-08-17T17:22:24.521Z,24.30
2022-08-17T17:24:52.875Z,24.33
2022-08-17T17:27:25.006Z,20.02
2022-08-17T17:30:14.070Z,21.50
2022-08-17T17:32:47.316Z,20.30
2022-08-17T17:35:23.254Z,25.98
2022-08-17T17:37:53.100Z,25.75
2022-08-17T17:40:22.951Z,20.88
2022-08-17T17:42:53.487Z,16.98
2022-08-17T17:45:26.328Z,23.45
2022-08-17T17:47:54.694Z,15.18
2022-08-17T17:50:24.738Z,20.15
2022-08-17T17:52:55.944Z,22.25
2022-08-17T17:55:37.379Z,23.05
2022-08-17T17:58:24.309Z,22.80
2022-08-17T18:00:55.407Z,24.80
2022-08-17T18:03:31.056Z,24.63
2022-08-17T18:06:05.298Z,24.13
2022-08-17T18:08:45.686Z,23.92
2022-08-17T18:11:39.876Z,28.45
2022-08-17T18:14:10.686Z,22.45
2022-08-17T18:16:42.770Z,21.10
2022-08-17T18:19:19.966Z,30.15
2022-08-17T18:21:55.580Z,25.52
2022-08-17T18:24:36.541Z,25.77
2022-08-17T18:27:24.020Z,28.40
2022-08-17T18:29:54.647Z,29.30
2022-08-17T18:32:23.351Z,25.52
2022-08-17T18:34:54.170Z,27.17
2022-08-17T18:37:31.106Z,27.02
2022-08-17T18:39:59.823Z,26.38
2022-08-17T18:42:30.056Z,24.75
2022-08-17T18:44:58.340Z,23.90
2022-08-17T18:47:28.509Z,24.65
2022-08-17T18:49:58.543Z,29.48
2022-08-17T18:52:29.125Z,25.30
2022-08-17T18:55:03.424Z,23.23
2022-08-17T18:57:39.076Z,23.23
2022-08-17T19:00:38.324Z,22.27
2022-08-17T19:03:18.349Z,23.38
2022-08-17T19:06:15.584Z,24.23
2022-08-17T19:08:45.053Z,31.38
2022-08-17T19:11:22.681Z,25.15
2022-08-17T19:13:56.154Z,24.25
2022-08-17T19:16:30.617Z,24.27
2022-08-17T19:19:12.496Z,27.73
2022-08-17T19:22:01.332Z,24.55
2022-08-17T19:24:32.670Z,27.35
2022-08-17T19:27:12.100Z,26.25
2022-08-17T19:29:56.070Z,23.75
2022-08-17T19:32:34.303Z,24.65
2022-08-17T19:35:03.674Z,21.40
2022-08-17T19:38:12.857Z,22.02
2022-08-17T19:40:53.779Z,23.83
2022-08-17T19:43:34.560Z,25.67
2022-08-17T19:46:03.917Z,25.50
2022-08-17T19:48:51.022Z,24.42
2022-08-17T19:51:29.194Z,25.17
2022-08-17T19:54:06.599Z,22.92
2022-08-17T19:56:44.041Z,21.83
2022-08-17T19:59:21.418Z,20.48
2022-08-17T20:01:54.607Z,24.63
2022-08-17T20:04:31.912Z,26.17
2022-08-17T20:07:03.990Z,19.20
2022-08-17T20:09:38.726Z,28.67
2022-08-17T20:12:18.454Z,23.70
2022-08-17T20:14:58.479Z,25.02
2022-08-17T20:17:38.709Z,27.80
2022-08-17T20:20:24.059Z,22.08
2022-08-17T20:23:25.459Z,24.83
2022-08-17T20:26:17.173Z,25.25
2022-08-17T20:29:07.606Z,22.35
2022-08-17T20:31:52.909Z,25.17
2022-08-17T20:34:34.974Z,25.75
2022-08-17T20:37:09.105Z,23.95
2022-08-17T20:40:08.219Z,25.88
2022-08-17T20:45:26.194Z,25.83
2022-08-17T20:48:22.093Z,21.08
2022-08-17T20:50:48.553Z,22.23
2022-08-17T20:53:37.691Z,28.50
2022-08-17T20:56:07.139Z,22.15
2022-08-17T20:58:45.083Z,24.40
2022-08-17T21:01:14.754Z,23.75
2022-08-17T21:03:50.631Z,24.77
2022-08-17T21:06:21.726Z,24.75
2022-08-17T21:08:59.075Z,24.65
2022-08-17T21:11:57.080Z,29.55
2022-08-17T21:14:34.280Z,24.25
2022-08-17T21:17:18.462Z,28.17
2022-08-17T21:20:08.243Z,26.00
2022-08-17T21:22:43.265Z,23.17
2022-08-17T21:25:14.318Z,26.98
2022-08-17T21:27:51.996Z,26.95
2022-08-17T21:30:42.670Z,27.85
2022-08-17T21:33:31.607Z,21.15
2022-08-17T21:35:59.948Z,27.05
2022-08-17T21:38:35.489Z,25.77
2022-08-17T21:41:04.011Z,23.65
2022-08-17T21:43:35.383Z,31.35
2022-08-17T21:46:05.634Z,34.63
2022-08-17T21:48:45.746Z,29.38
2022-08-17T21:51:17.634Z,28.23
2022-08-17T21:53:50.350Z,28.20
2022-08-17T21:56:23.493Z,30.90
2022-08-17T21:59:00.152Z,27.95
2022-08-17T22:01:34.850Z,31.77
2022-08-17T22:04:04.419Z,28.77
2022-08-17T22:06:38.633Z,27.45
2022-08-17T22:09:10.778Z,34.58
2022-08-17T22:11:52.741Z,32.47
2022-08-17T22:14:26.686Z,29.23
2022-08-17T22:17:23.536Z,30.65
2022-08-17T22:19:56.311Z,29.02
2022-08-17T22:22:26.818Z,23.20
2022-08-17T22:24:57.784Z,26.60
2022-08-17T22:27:47.124Z,41.33
2022-08-17T22:30:18.398Z,34.10
2022-08-17T22:33:00.924Z,28.70
2022-08-17T22:35:34.747Z,37.63
2022-08-17T22:38:21.193Z,37.63
2022-08-17T22:40:50.725Z,33.38
2022-08-17T22:43:21.190Z,37.50
2022-08-17T22:45:55.563Z,42.40
2022-08-17T22:48:27.439Z,39.78
2022-08-17T22:51:13.768Z,32.63
2022-08-17T22:54:04.952Z,39.88
2022-08-17T22:56:51.195Z,35.05
2022-08-17T22:59:35.774Z,37.35
2022-08-17T23:02:13.853Z,25.87
2022-08-17T23:04:44.655Z,37.15
2022-08-17T23:07:12.826Z,35.67
2022-08-17T23:09:41.404Z,35.97
2022-08-17T23:12:14.941Z,38.78
2022-08-17T23:14:45.790Z,40.95
2022-08-17T23:17:16.349Z,40.28
2022-08-17T23:19:45.045Z,41.60
2022-08-17T23:22:13.591Z,37.75
2022-08-17T23:24:46.443Z,41.75
2022-08-17T23:27:14.829Z,36.47
2022-08-17T23:29:43.284Z,39.05
2022-08-17T23:32:25.156Z,36.20
2022-08-17T23:34:53.946Z,38.53
2022-08-17T23:37:22.538Z,39.70
2022-08-17T23:39:53.865Z,41.05
2022-08-17T23:42:25.003Z,43.73
2022-08-17T23:44:53.835Z,31.38
2022-08-17T23:47:23.294Z,40.90
2022-08-17T23:49:54.100Z,46.30
2022-08-17T23:52:28.019Z,42.35
2022-08-17T23:57:33.870Z,33.10
